Elation — 3FOC5 — position and weather

sailwx.info

Track history (hours):
 
Tides and Currents Weather Stations Pressure Air Temp Water Temp Dewpoint Dewpoint Depression Visibility Wind Speed Wind Dir Waves Ship Positions

Elation

Operator: Carnival Cruise Lines

Last reported at 2017-Nov-24 08:13 UTC. Time now 2017-Nov-24 22:23 UTC.
Position N 28°30' W 080°06'.

Type: Passenger vessel. MMSI: 355831000.

Date/timePositionNaut miles runAvg speedWind from/ knotsBaromVisibWave heightAir tempDewpointWater temp
2017-Nov-24 08:13N 28°30' W 080°06'66 2.3
2017-Nov-23 03:00N 29°36' W 080°12'30212.6 080 / 181016.110.8 24.015.828.0
2017-Nov-22 03:00N 25°42' W 076°36'   050 / 101014.310.8 25.022.028.0
2017-Nov-19 01:14N 30°14' W 081°07'210.2
2017-Nov-19 01:00N 30°16' W 081°09'510.0
2017-Nov-19 00:30N 30°19' W 081°14'5 9.6
2017-Nov-19 00:00N 30°22' W 081°17'4 8.4
2017-Nov-18 23:30N 30°24' W 081°22'4 7.7
2017-Nov-18 23:00N 30°23' W 081°26'4 7.1
2017-Nov-18 22:30N 30°23' W 081°30'3 6.7
2017-Nov-18 22:00N 30°24' W 081°34'1 1.6
2017-Nov-18 21:25N 30°24' W 081°35'0 0.0
2017-Nov-18 20:55N 30°24' W 081°35'0 0.0
2017-Nov-18 20:25N 30°24' W 081°35'0 0.0
2017-Nov-18 19:55N 30°24' W 081°35'0 0.0
2017-Nov-18 19:25N 30°24' W 081°35'0 0.0
2017-Nov-18 18:55N 30°24' W 081°35'0 0.0
2017-Nov-18 18:25N 30°24' W 081°35'0 0.0
2017-Nov-18 17:55N 30°24' W 081°35'0 0.0
2017-Nov-18 17:25N 30°24' W 081°35'0 0.0
2017-Nov-18 16:55N 30°24' W 081°35'0 0.0
2017-Nov-18 15:13N 30°24' W 081°35'0 0.0
2017-Nov-18 14:55N 30°24' W 081°35'0 0.0
2017-Nov-18 14:25N 30°24' W 081°35'0 0.0
2017-Nov-18 13:55N 30°24' W 081°35'0 0.0
2017-Nov-18 13:25N 30°24' W 081°35'0 0.0
2017-Nov-18 12:55N 30°24' W 081°35'0 0.0
2017-Nov-18 12:25N 30°24' W 081°35'0 0.0
2017-Nov-18 11:55N 30°24' W 081°35'1 3.4
2017-Nov-18 11:30N 30°23' W 081°34'4 8.1
2017-Nov-18 11:00N 30°24' W 081°29'3 6.2
2017-Nov-18 10:30N 30°24' W 081°26'5 9.5
2017-Nov-18 10:00N 30°24' W 081°20'5 9.2
2017-Nov-18 09:30N 30°21' W 081°16'4 8.5
2017-Nov-18 09:00N 30°18' W 081°12'5 9.3
2017-Nov-18 08:30N 30°16' W 081°08'4 8.8
2017-Nov-18 08:00N 30°13' W 081°04'5 9.6
2017-Nov-18 07:30N 30°10' W 080°59'4510.1
2017-Nov-18 03:00N 29°42' W 080°18'340 7.1 090 / 101018.610.8 22.013.428.0
2017-Nov-16 03:00N 25°30' W 076°00'35 1.5 060 / 201012.010.8 26.023.128.0
2017-Nov-15 04:00N 25°42' W 076°36'   050 / 151011.310.8 26.021.528.0
Track history (hours):
 
Tides and Currents Weather Stations Pressure Air Temp Water Temp Dewpoint Dewpoint Depression Visibility Wind Speed Wind Dir Waves Ship Positions

Elation

Operator: Carnival Cruise Lines

Last reported at 2017-Nov-24 08:13 UTC. Time now 2017-Nov-24 22:23 UTC.
Position N 28°30' W 080°06'.

Type: Passenger vessel. MMSI: 355831000.

Date/timePositionNaut miles runAvg speedWind from/ knotsBaromVisibWave heightAir tempDewpointWater temp
2017-Nov-24 08:13N 28°30' W 080°06'66 2.3
2017-Nov-23 03:00N 29°36' W 080°12'30212.6 080 / 181016.110.8 24.015.828.0
2017-Nov-22 03:00N 25°42' W 076°36'   050 / 101014.310.8 25.022.028.0
2017-Nov-19 01:14N 30°14' W 081°07'210.2
2017-Nov-19 01:00N 30°16' W 081°09'510.0
2017-Nov-19 00:30N 30°19' W 081°14'5 9.6
2017-Nov-19 00:00N 30°22' W 081°17'4 8.4
2017-Nov-18 23:30N 30°24' W 081°22'4 7.7
2017-Nov-18 23:00N 30°23' W 081°26'4 7.1
2017-Nov-18 22:30N 30°23' W 081°30'3 6.7
2017-Nov-18 22:00N 30°24' W 081°34'1 1.6
2017-Nov-18 21:25N 30°24' W 081°35'0 0.0
2017-Nov-18 20:55N 30°24' W 081°35'0 0.0
2017-Nov-18 20:25N 30°24' W 081°35'0 0.0
2017-Nov-18 19:55N 30°24' W 081°35'0 0.0
2017-Nov-18 19:25N 30°24' W 081°35'0 0.0
2017-Nov-18 18:55N 30°24' W 081°35'0 0.0
2017-Nov-18 18:25N 30°24' W 081°35'0 0.0
2017-Nov-18 17:55N 30°24' W 081°35'0 0.0
2017-Nov-18 17:25N 30°24' W 081°35'0 0.0
2017-Nov-18 16:55N 30°24' W 081°35'0 0.0
2017-Nov-18 15:13N 30°24' W 081°35'0 0.0
2017-Nov-18 14:55N 30°24' W 081°35'0 0.0
2017-Nov-18 14:25N 30°24' W 081°35'0 0.0
2017-Nov-18 13:55N 30°24' W 081°35'0 0.0
2017-Nov-18 13:25N 30°24' W 081°35'0 0.0
2017-Nov-18 12:55N 30°24' W 081°35'0 0.0
2017-Nov-18 12:25N 30°24' W 081°35'0 0.0
2017-Nov-18 11:55N 30°24' W 081°35'1 3.4
2017-Nov-18 11:30N 30°23' W 081°34'4 8.1
2017-Nov-18 11:00N 30°24' W 081°29'3 6.2
2017-Nov-18 10:30N 30°24' W 081°26'5 9.5
2017-Nov-18 10:00N 30°24' W 081°20'5 9.2
2017-Nov-18 09:30N 30°21' W 081°16'4 8.5
2017-Nov-18 09:00N 30°18' W 081°12'5 9.3
2017-Nov-18 08:30N 30°16' W 081°08'4 8.8
2017-Nov-18 08:00N 30°13' W 081°04'5 9.6
2017-Nov-18 07:30N 30°10' W 080°59'4510.1
2017-Nov-18 03:00N 29°42' W 080°18'340 7.1 090 / 101018.610.8 22.013.428.0
2017-Nov-16 03:00N 25°30' W 076°00'35 1.5 060 / 201012.010.8 26.023.128.0
2017-Nov-15 04:00N 25°42' W 076°36'   050 / 151011.310.8 26.021.528.0

Dump ship's entire track history